sensor_id;sensor_type;location;lat;lon;timestamp;temperature;humidity
2907;DHT22;1463;51.070;16.998;2022-09-09T00:01:19;18.40;99.90
2907;DHT22;1463;51.070;16.998;2022-09-09T00:03:48;18.40;99.90
2907;DHT22;1463;51.070;16.998;2022-09-09T00:06:21;18.30;99.90
2907;DHT22;1463;51.070;16.998;2022-09-09T00:08:53;18.40;99.90
2907;DHT22;1463;51.070;16.998;2022-09-09T00:11:24;18.30;99.90
2907;DHT22;1463;51.070;16.998;2022-09-09T00:13:53;18.30;99.90
2907;DHT22;1463;51.070;16.998;2022-09-09T00:16:22;18.30;99.90
2907;DHT22;1463;51.070;16.998;2022-09-09T00:18:53;18.20;99.90
2907;DHT22;1463;51.070;16.998;2022-09-09T00:21:22;18.30;99.90
2907;DHT22;1463;51.070;16.998;2022-09-09T00:23:54;18.20;99.90
2907;DHT22;1463;51.070;16.998;2022-09-09T00:26:22;18.20;99.90
2907;DHT22;1463;51.070;16.998;2022-09-09T00:28:58;18.20;99.90
2907;DHT22;1463;51.070;16.998;2022-09-09T00:31:28;18.30;99.90
2907;DHT22;1463;51.070;16.998;2022-09-09T00:33:56;18.20;99.90
2907;DHT22;1463;51.070;16.998;2022-09-09T00:36:25;18.30;99.90
2907;DHT22;1463;51.070;16.998;2022-09-09T00:38:56;18.20;99.90
2907;DHT22;1463;51.070;16.998;2022-09-09T00:41:26;18.20;99.90
2907;DHT22;1463;51.070;16.998;2022-09-09T00:43:57;18.10;99.90
2907;DHT22;1463;51.070;16.998;2022-09-09T00:46:32;18.10;99.90
2907;DHT22;1463;51.070;16.998;2022-09-09T00:49:08;18.10;99.90
2907;DHT22;1463;51.070;16.998;2022-09-09T00:51:42;18.00;99.90
2907;DHT22;1463;51.070;16.998;2022-09-09T00:54:20;18.00;99.90
2907;DHT22;1463;51.070;16.998;2022-09-09T00:56:51;17.90;99.90
2907;DHT22;1463;51.070;16.998;2022-09-09T00:59:24;17.90;99.90
2907;DHT22;1463;51.070;16.998;2022-09-09T01:01:55;17.80;99.90
2907;DHT22;1463;51.070;16.998;2022-09-09T01:04:24;17.90;99.90
2907;DHT22;1463;51.070;16.998;2022-09-09T01:06:55;17.90;99.90
2907;DHT22;1463;51.070;16.998;2022-09-09T01:09:27;17.80;99.90
2907;DHT22;1463;51.070;16.998;2022-09-09T01:12:01;17.80;99.90
2907;DHT22;1463;51.070;16.998;2022-09-09T01:14:37;17.80;99.90
2907;DHT22;1463;51.070;16.998;2022-09-09T01:17:09;17.80;99.90
2907;DHT22;1463;51.070;16.998;2022-09-09T01:19:44;17.80;99.90
2907;DHT22;1463;51.070;16.998;2022-09-09T01:22:15;17.80;99.90
2907;DHT22;1463;51.070;16.998;2022-09-09T01:25:05;17.70;99.90
2907;DHT22;1463;51.070;16.998;2022-09-09T01:27:37;17.70;99.90
2907;DHT22;1463;51.070;16.998;2022-09-09T01:30:08;17.70;99.90
2907;DHT22;1463;51.070;16.998;2022-09-09T01:32:37;17.60;99.90
2907;DHT22;1463;51.070;16.998;2022-09-09T01:35:06;17.70;99.90
2907;DHT22;1463;51.070;16.998;2022-09-09T01:37:34;17.60;99.90
2907;DHT22;1463;51.070;16.998;2022-09-09T01:40:02;17.60;99.90
2907;DHT22;1463;51.070;16.998;2022-09-09T01:42:29;17.60;99.90
2907;DHT22;1463;51.070;16.998;2022-09-09T01:44:58;17.70;99.90
2907;DHT22;1463;51.070;16.998;2022-09-09T01:47:25;17.60;99.90
2907;DHT22;1463;51.070;16.998;2022-09-09T01:49:52;17.60;99.90
2907;DHT22;1463;51.070;16.998;2022-09-09T01:52:19;17.60;99.90
2907;DHT22;1463;51.070;16.998;2022-09-09T01:54:46;17.60;99.90
2907;DHT22;1463;51.070;16.998;2022-09-09T01:57:15;17.60;99.90
2907;DHT22;1463;51.070;16.998;2022-09-09T01:59:48;17.60;99.90
2907;DHT22;1463;51.070;16.998;2022-09-09T02:02:19;17.50;99.90
2907;DHT22;1463;51.070;16.998;2022-09-09T02:04:49;17.50;99.90
2907;DHT22;1463;51.070;16.998;2022-09-09T02:07:21;17.50;99.90
2907;DHT22;1463;51.070;16.998;2022-09-09T02:09:50;17.50;99.90
2907;DHT22;1463;51.070;16.998;2022-09-09T02:12:18;17.50;99.90
2907;DHT22;1463;51.070;16.998;2022-09-09T02:14:49;17.50;99.90
2907;DHT22;1463;51.070;16.998;2022-09-09T02:17:19;17.50;99.90
2907;DHT22;1463;51.070;16.998;2022-09-09T02:19:49;17.50;99.90
2907;DHT22;1463;51.070;16.998;2022-09-09T02:22:18;17.40;99.90
2907;DHT22;1463;51.070;16.998;2022-09-09T02:24:47;17.40;99.90
2907;DHT22;1463;51.070;16.998;2022-09-09T02:27:15;17.30;99.90
2907;DHT22;1463;51.070;16.998;2022-09-09T02:29:43;17.40;99.90
2907;DHT22;1463;51.070;16.998;2022-09-09T02:32:13;17.40;99.90
2907;DHT22;1463;51.070;16.998;2022-09-09T02:34:43;17.40;99.90
2907;DHT22;1463;51.070;16.998;2022-09-09T02:37:12;17.40;99.90
2907;DHT22;1463;51.070;16.998;2022-09-09T02:39:39;17.30;99.90
2907;DHT22;1463;51.070;16.998;2022-09-09T02:42:07;17.30;99.90
2907;DHT22;1463;51.070;16.998;2022-09-09T02:44:35;17.30;99.90
2907;DHT22;1463;51.070;16.998;2022-09-09T02:47:08;17.40;99.90
2907;DHT22;1463;51.070;16.998;2022-09-09T02:49:40;17.40;99.90
2907;DHT22;1463;51.070;16.998;2022-09-09T02:52:13;17.40;99.90
2907;DHT22;1463;51.070;16.998;2022-09-09T02:54:40;17.30;99.90
2907;DHT22;1463;51.070;16.998;2022-09-09T02:57:10;17.30;99.90
2907;DHT22;1463;51.070;16.998;2022-09-09T02:59:38;17.30;99.90
2907;DHT22;1463;51.070;16.998;2022-09-09T03:02:05;17.30;99.90
2907;DHT22;1463;51.070;16.998;2022-09-09T03:04:32;17.30;99.90
2907;DHT22;1463;51.070;16.998;2022-09-09T03:07:00;17.30;99.90
2907;DHT22;1463;51.070;16.998;2022-09-09T03:09:30;17.20;99.90
2907;DHT22;1463;51.070;16.998;2022-09-09T03:11:58;17.20;99.90
2907;DHT22;1463;51.070;16.998;2022-09-09T03:14:25;17.20;99.90
2907;DHT22;1463;51.070;16.998;2022-09-09T03:16:52;17.10;99.90
2907;DHT22;1463;51.070;16.998;2022-09-09T03:19:20;17.00;99.90
2907;DHT22;1463;51.070;16.998;2022-09-09T03:21:47;17.00;99.90
2907;DHT22;1463;51.070;16.998;2022-09-09T03:27:07;16.90;99.90
2907;DHT22;1463;51.070;16.998;2022-09-09T03:29:34;16.80;99.90
2907;DHT22;1463;51.070;16.998;2022-09-09T03:32:01;16.90;99.90
2907;DHT22;1463;51.070;16.998;2022-09-09T03:34:28;16.90;99.90
2907;DHT22;1463;51.070;16.998;2022-09-09T03:36:56;16.90;99.90
2907;DHT22;1463;51.070;16.998;2022-09-09T03:39:23;16.90;99.90
2907;DHT22;1463;51.070;16.998;2022-09-09T03:41:51;16.90;99.90
2907;DHT22;1463;51.070;16.998;2022-09-09T03:44:19;16.90;99.90
2907;DHT22;1463;51.070;16.998;2022-09-09T03:46:46;16.90;99.90
2907;DHT22;1463;51.070;16.998;2022-09-09T03:49:13;16.90;99.90
2907;DHT22;1463;51.070;16.998;2022-09-09T03:51:40;16.90;99.90
2907;DHT22;1463;51.070;16.998;2022-09-09T03:54:08;16.90;99.90
2907;DHT22;1463;51.070;16.998;2022-09-09T03:56:35;16.90;99.90
2907;DHT22;1463;51.070;16.998;2022-09-09T03:59:03;16.90;99.90
2907;DHT22;1463;51.070;16.998;2022-09-09T04:01:32;16.80;99.90
2907;DHT22;1463;51.070;16.998;2022-09-09T04:03:59;16.80;99.90
2907;DHT22;1463;51.070;16.998;2022-09-09T04:06:27;16.80;99.90
2907;DHT22;1463;51.070;16.998;2022-09-09T04:08:55;16.80;99.90
2907;DHT22;1463;51.070;16.998;2022-09-09T04:11:22;16.80;99.90
2907;DHT22;1463;51.070;16.998;2022-09-09T04:13:50;16.80;99.90
2907;DHT22;1463;51.070;16.998;2022-09-09T04:16:17;16.70;99.90
2907;DHT22;1463;51.070;16.998;2022-09-09T04:18:47;16.70;99.90
2907;DHT22;1463;51.070;16.998;2022-09-09T04:21:14;16.70;99.90
2907;DHT22;1463;51.070;16.998;2022-09-09T04:23:41;16.70;99.90
2907;DHT22;1463;51.070;16.998;2022-09-09T04:26:08;16.70;99.90
2907;DHT22;1463;51.070;16.998;2022-09-09T04:28:35;16.70;99.90
2907;DHT22;1463;51.070;16.998;2022-09-09T04:31:06;16.60;99.90
2907;DHT22;1463;51.070;16.998;2022-09-09T04:33:34;16.60;99.90
2907;DHT22;1463;51.070;16.998;2022-09-09T04:36:05;16.70;99.90
2907;DHT22;1463;51.070;16.998;2022-09-09T04:38:33;16.70;99.90
2907;DHT22;1463;51.070;16.998;2022-09-09T04:41:00;16.70;99.90
2907;DHT22;1463;51.070;16.998;2022-09-09T04:43:27;16.70;99.90
2907;DHT22;1463;51.070;16.998;2022-09-09T04:45:56;16.70;99.90
2907;DHT22;1463;51.070;16.998;2022-09-09T04:48:23;16.60;99.90
2907;DHT22;1463;51.070;16.998;2022-09-09T04:50:54;16.60;99.90
2907;DHT22;1463;51.070;16.998;2022-09-09T04:53:23;16.60;99.90
2907;DHT22;1463;51.070;16.998;2022-09-09T04:55:51;16.50;99.90
2907;DHT22;1463;51.070;16.998;2022-09-09T04:58:18;16.50;99.90
2907;DHT22;1463;51.070;16.998;2022-09-09T05:00:47;16.50;99.90
2907;DHT22;1463;51.070;16.998;2022-09-09T05:03:14;16.60;99.90
2907;DHT22;1463;51.070;16.998;2022-09-09T05:05:41;16.60;99.90
2907;DHT22;1463;51.070;16.998;2022-09-09T05:08:10;16.60;99.90
2907;DHT22;1463;51.070;16.998;2022-09-09T05:10:38;16.60;99.90
2907;DHT22;1463;51.070;16.998;2022-09-09T05:13:07;16.60;99.90
2907;DHT22;1463;51.070;16.998;2022-09-09T05:15:34;16.60;99.90
2907;DHT22;1463;51.070;16.998;2022-09-09T05:18:01;16.60;99.90
2907;DHT22;1463;51.070;16.998;2022-09-09T05:20:29;16.60;99.90
2907;DHT22;1463;51.070;16.998;2022-09-09T05:22:57;16.60;99.90
2907;DHT22;1463;51.070;16.998;2022-09-09T05:25:24;16.50;99.90
2907;DHT22;1463;51.070;16.998;2022-09-09T05:27:53;16.50;99.90
2907;DHT22;1463;51.070;16.998;2022-09-09T05:30:21;16.40;99.90
2907;DHT22;1463;51.070;16.998;2022-09-09T05:32:51;16.50;99.90
2907;DHT22;1463;51.070;16.998;2022-09-09T05:35:18;16.50;99.90
2907;DHT22;1463;51.070;16.998;2022-09-09T05:37:46;16.50;99.90
2907;DHT22;1463;51.070;16.998;2022-09-09T05:40:13;16.50;99.90
2907;DHT22;1463;51.070;16.998;2022-09-09T05:42:40;16.60;99.90
2907;DHT22;1463;51.070;16.998;2022-09-09T05:45:10;16.60;99.90
2907;DHT22;1463;51.070;16.998;2022-09-09T05:47:37;16.60;99.90
2907;DHT22;1463;51.070;16.998;2022-09-09T05:50:04;16.80;99.90
2907;DHT22;1463;51.070;16.998;2022-09-09T05:52:33;16.90;99.90
2907;DHT22;1463;51.070;16.998;2022-09-09T05:55:00;16.90;99.90
2907;DHT22;1463;51.070;16.998;2022-09-09T05:57:30;16.90;99.90
2907;DHT22;1463;51.070;16.998;2022-09-09T05:59:57;17.00;99.90
2907;DHT22;1463;51.070;16.998;2022-09-09T06:02:26;17.00;99.90
2907;DHT22;1463;51.070;16.998;2022-09-09T06:04:53;17.10;99.90
2907;DHT22;1463;51.070;16.998;2022-09-09T06:07:21;17.10;99.90
2907;DHT22;1463;51.070;16.998;2022-09-09T06:09:48;17.10;99.90
2907;DHT22;1463;51.070;16.998;2022-09-09T06:12:17;17.20;99.90
2907;DHT22;1463;51.070;16.998;2022-09-09T06:14:44;17.20;99.90
2907;DHT22;1463;51.070;16.998;2022-09-09T06:17:11;17.20;99.90
2907;DHT22;1463;51.070;16.998;2022-09-09T06:19:40;17.30;99.90
2907;DHT22;1463;51.070;16.998;2022-09-09T06:22:07;17.40;99.90
2907;DHT22;1463;51.070;16.998;2022-09-09T06:24:38;17.40;99.90
2907;DHT22;1463;51.070;16.998;2022-09-09T06:27:06;17.50;99.90
2907;DHT22;1463;51.070;16.998;2022-09-09T06:29:34;17.60;99.90
2907;DHT22;1463;51.070;16.998;2022-09-09T06:32:03;17.70;99.90
2907;DHT22;1463;51.070;16.998;2022-09-09T06:34:31;17.70;99.90
2907;DHT22;1463;51.070;16.998;2022-09-09T06:37:01;17.90;99.90
2907;DHT22;1463;51.070;16.998;2022-09-09T06:39:29;18.00;99.90
2907;DHT22;1463;51.070;16.998;2022-09-09T06:41:58;18.00;99.90
2907;DHT22;1463;51.070;16.998;2022-09-09T06:44:25;18.10;99.90
2907;DHT22;1463;51.070;16.998;2022-09-09T06:46:53;18.20;99.90
2907;DHT22;1463;51.070;16.998;2022-09-09T06:49:21;18.20;99.90
2907;DHT22;1463;51.070;16.998;2022-09-09T06:51:49;18.30;99.90
2907;DHT22;1463;51.070;16.998;2022-09-09T06:54:19;18.40;99.90
2907;DHT22;1463;51.070;16.998;2022-09-09T06:56:48;18.50;99.90
2907;DHT22;1463;51.070;16.998;2022-09-09T06:59:17;18.60;99.90
2907;DHT22;1463;51.070;16.998;2022-09-09T07:01:45;18.70;99.90
2907;DHT22;1463;51.070;16.998;2022-09-09T07:04:14;18.80;99.90
2907;DHT22;1463;51.070;16.998;2022-09-09T07:06:44;18.80;99.90
2907;DHT22;1463;51.070;16.998;2022-09-09T07:09:13;18.90;99.90
2907;DHT22;1463;51.070;16.998;2022-09-09T07:11:56;19.00;99.90
2907;DHT22;1463;51.070;16.998;2022-09-09T07:14:25;19.10;99.90
2907;DHT22;1463;51.070;16.998;2022-09-09T07:16:55;19.20;99.90
2907;DHT22;1463;51.070;16.998;2022-09-09T07:19:23;19.30;99.90
2907;DHT22;1463;51.070;16.998;2022-09-09T07:21:51;19.40;99.90
2907;DHT22;1463;51.070;16.998;2022-09-09T07:24:19;19.50;99.90
2907;DHT22;1463;51.070;16.998;2022-09-09T07:26:46;19.60;99.90
2907;DHT22;1463;51.070;16.998;2022-09-09T07:29:15;19.70;99.90
2907;DHT22;1463;51.070;16.998;2022-09-09T07:31:43;19.80;99.90
2907;DHT22;1463;51.070;16.998;2022-09-09T07:34:12;19.90;99.90
2907;DHT22;1463;51.070;16.998;2022-09-09T07:36:40;20.10;99.90
2907;DHT22;1463;51.070;16.998;2022-09-09T07:39:08;20.20;99.90
2907;DHT22;1463;51.070;16.998;2022-09-09T07:41:36;20.30;99.90
2907;DHT22;1463;51.070;16.998;2022-09-09T07:44:04;20.40;99.90
2907;DHT22;1463;51.070;16.998;2022-09-09T07:46:34;20.60;99.90
2907;DHT22;1463;51.070;16.998;2022-09-09T07:49:02;20.80;99.90
2907;DHT22;1463;51.070;16.998;2022-09-09T07:51:31;20.90;99.90
2907;DHT22;1463;51.070;16.998;2022-09-09T07:54:01;20.90;99.90
2907;DHT22;1463;51.070;16.998;2022-09-09T07:56:30;20.90;99.90
2907;DHT22;1463;51.070;16.998;2022-09-09T07:58:58;21.00;99.90
2907;DHT22;1463;51.070;16.998;2022-09-09T08:01:28;21.10;99.90
2907;DHT22;1463;51.070;16.998;2022-09-09T08:03:57;21.20;99.90
2907;DHT22;1463;51.070;16.998;2022-09-09T08:06:27;21.30;99.90
2907;DHT22;1463;51.070;16.998;2022-09-09T08:08:56;21.50;99.90
2907;DHT22;1463;51.070;16.998;2022-09-09T08:11:25;21.70;99.90
2907;DHT22;1463;51.070;16.998;2022-09-09T08:13:55;21.90;99.90
2907;DHT22;1463;51.070;16.998;2022-09-09T08:16:25;22.20;99.90
2907;DHT22;1463;51.070;16.998;2022-09-09T08:18:53;22.50;99.90
2907;DHT22;1463;51.070;16.998;2022-09-09T08:21:26;23.00;99.90
2907;DHT22;1463;51.070;16.998;2022-09-09T08:23:56;23.70;99.90
2907;DHT22;1463;51.070;16.998;2022-09-09T08:26:25;24.60;99.90
2907;DHT22;1463;51.070;16.998;2022-09-09T08:28:55;25.50;99.90
2907;DHT22;1463;51.070;16.998;2022-09-09T08:31:27;26.20;99.90
2907;DHT22;1463;51.070;16.998;2022-09-09T08:33:56;26.70;99.90
2907;DHT22;1463;51.070;16.998;2022-09-09T08:36:30;27.00;99.90
2907;DHT22;1463;51.070;16.998;2022-09-09T08:38:59;27.10;99.90
2907;DHT22;1463;51.070;16.998;2022-09-09T08:41:35;28.80;93.80
2907;DHT22;1463;51.070;16.998;2022-09-09T08:44:10;30.70;88.90
2907;DHT22;1463;51.070;16.998;2022-09-09T08:46:44;31.70;84.00
2907;DHT22;1463;51.070;16.998;2022-09-09T08:49:19;31.70;78.60
2907;DHT22;1463;51.070;16.998;2022-09-09T08:51:57;30.80;77.80
2907;DHT22;1463;51.070;16.998;2022-09-09T08:54:26;29.90;81.80
2907;DHT22;1463;51.070;16.998;2022-09-09T08:56:58;29.30;83.70
2907;DHT22;1463;51.070;16.998;2022-09-09T08:59:27;28.70;86.40
2907;DHT22;1463;51.070;16.998;2022-09-09T09:01:58;28.50;89.20
2907;DHT22;1463;51.070;16.998;2022-09-09T09:04:35;28.80;90.30
2907;DHT22;1463;51.070;16.998;2022-09-09T09:07:10;30.00;86.60
2907;DHT22;1463;51.070;16.998;2022-09-09T09:09:46;31.50;81.40
2907;DHT22;1463;51.070;16.998;2022-09-09T09:12:18;32.60;75.00
2907;DHT22;1463;51.070;16.998;2022-09-09T09:14:48;32.90;74.10
2907;DHT22;1463;51.070;16.998;2022-09-09T09:17:17;32.10;72.40
2907;DHT22;1463;51.070;16.998;2022-09-09T09:19:47;31.20;72.20
2907;DHT22;1463;51.070;16.998;2022-09-09T09:22:18;30.10;74.20
2907;DHT22;1463;51.070;16.998;2022-09-09T09:24:50;29.70;79.20
2907;DHT22;1463;51.070;16.998;2022-09-09T09:27:31;29.90;77.80
2907;DHT22;1463;51.070;16.998;2022-09-09T09:30:01;30.00;76.90
2907;DHT22;1463;51.070;16.998;2022-09-09T09:32:30;29.70;77.10
2907;DHT22;1463;51.070;16.998;2022-09-09T09:34:59;29.50;76.60
2907;DHT22;1463;51.070;16.998;2022-09-09T09:37:31;29.20;78.50
2907;DHT22;1463;51.070;16.998;2022-09-09T09:40:08;28.80;80.10
2907;DHT22;1463;51.070;16.998;2022-09-09T09:42:37;28.30;80.90
2907;DHT22;1463;51.070;16.998;2022-09-09T09:45:26;27.70;80.30
2907;DHT22;1463;51.070;16.998;2022-09-09T09:48:00;27.20;79.70
2907;DHT22;1463;51.070;16.998;2022-09-09T09:50:30;26.60;84.90
2907;DHT22;1463;51.070;16.998;2022-09-09T09:53:00;26.20;87.20
2907;DHT22;1463;51.070;16.998;2022-09-09T09:55:33;25.90;87.40
2907;DHT22;1463;51.070;16.998;2022-09-09T09:58:03;25.80;87.10
2907;DHT22;1463;51.070;16.998;2022-09-09T10:00:33;25.70;87.00
2907;DHT22;1463;51.070;16.998;2022-09-09T10:03:12;25.70;91.20
2907;DHT22;1463;51.070;16.998;2022-09-09T10:05:44;25.60;92.70
2907;DHT22;1463;51.070;16.998;2022-09-09T10:08:15;25.40;88.00
2907;DHT22;1463;51.070;16.998;2022-09-09T10:10:47;25.40;90.00
2907;DHT22;1463;51.070;16.998;2022-09-09T10:13:23;25.40;90.80
2907;DHT22;1463;51.070;16.998;2022-09-09T10:15:56;25.40;92.50
2907;DHT22;1463;51.070;16.998;2022-09-09T10:18:36;25.30;93.70
2907;DHT22;1463;51.070;16.998;2022-09-09T10:21:08;25.10;96.50
2907;DHT22;1463;51.070;16.998;2022-09-09T10:23:45;25.00;94.90
2907;DHT22;1463;51.070;16.998;2022-09-09T10:26:17;24.80;93.50
2907;DHT22;1463;51.070;16.998;2022-09-09T10:29:00;24.60;91.80
2907;DHT22;1463;51.070;16.998;2022-09-09T10:31:31;24.40;96.80
2907;DHT22;1463;51.070;16.998;2022-09-09T10:34:05;24.30;95.30
2907;DHT22;1463;51.070;16.998;2022-09-09T10:36:37;24.20;99.40
2907;DHT22;1463;51.070;16.998;2022-09-09T10:39:11;24.00;99.00
2907;DHT22;1463;51.070;16.998;2022-09-09T10:41:44;24.20;99.90
2907;DHT22;1463;51.070;16.998;2022-09-09T10:44:16;24.30;99.90
2907;DHT22;1463;51.070;16.998;2022-09-09T10:46:49;24.40;97.60
2907;DHT22;1463;51.070;16.998;2022-09-09T10:49:22;24.50;98.90
2907;DHT22;1463;51.070;16.998;2022-09-09T10:51:57;24.70;96.10
2907;DHT22;1463;51.070;16.998;2022-09-09T10:54:35;24.70;98.10
2907;DHT22;1463;51.070;16.998;2022-09-09T10:57:05;24.80;94.20
2907;DHT22;1463;51.070;16.998;2022-09-09T10:59:36;24.80;93.20
2907;DHT22;1463;51.070;16.998;2022-09-09T11:02:07;24.80;93.50
2907;DHT22;1463;51.070;16.998;2022-09-09T11:04:39;24.80;95.90
2907;DHT22;1463;51.070;16.998;2022-09-09T11:07:08;24.90;96.00
2907;DHT22;1463;51.070;16.998;2022-09-09T11:09:39;24.80;99.50
2907;DHT22;1463;51.070;16.998;2022-09-09T11:12:10;24.90;99.70
2907;DHT22;1463;51.070;16.998;2022-09-09T11:14:41;25.10;99.40
2907;DHT22;1463;51.070;16.998;2022-09-09T11:17:10;25.40;96.70
2907;DHT22;1463;51.070;16.998;2022-09-09T11:19:39;25.40;95.70
2907;DHT22;1463;51.070;16.998;2022-09-09T11:22:07;25.50;96.70
2907;DHT22;1463;51.070;16.998;2022-09-09T11:24:36;25.60;95.30
2907;DHT22;1463;51.070;16.998;2022-09-09T11:27:08;25.60;94.20
2907;DHT22;1463;51.070;16.998;2022-09-09T11:29:51;25.60;94.50
2907;DHT22;1463;51.070;16.998;2022-09-09T11:32:27;25.60;94.90
2907;DHT22;1463;51.070;16.998;2022-09-09T11:35:00;25.70;93.80
2907;DHT22;1463;51.070;16.998;2022-09-09T11:37:36;25.70;94.60
2907;DHT22;1463;51.070;16.998;2022-09-09T11:40:09;25.80;94.90
2907;DHT22;1463;51.070;16.998;2022-09-09T11:42:42;25.90;95.50
2907;DHT22;1463;51.070;16.998;2022-09-09T11:45:10;26.00;96.30
2907;DHT22;1463;51.070;16.998;2022-09-09T11:47:38;26.10;93.40
2907;DHT22;1463;51.070;16.998;2022-09-09T11:50:09;26.10;93.60
2907;DHT22;1463;51.070;16.998;2022-09-09T11:52:38;26.10;92.70
2907;DHT22;1463;51.070;16.998;2022-09-09T11:55:10;26.10;93.60
2907;DHT22;1463;51.070;16.998;2022-09-09T11:57:38;26.00;94.80
2907;DHT22;1463;51.070;16.998;2022-09-09T12:02:49;25.70;92.80
2907;DHT22;1463;51.070;16.998;2022-09-09T12:05:16;25.50;93.90
2907;DHT22;1463;51.070;16.998;2022-09-09T12:07:47;25.30;93.60
2907;DHT22;1463;51.070;16.998;2022-09-09T12:10:23;25.10;93.60
2907;DHT22;1463;51.070;16.998;2022-09-09T12:12:52;24.90;93.50
2907;DHT22;1463;51.070;16.998;2022-09-09T12:15:24;24.80;94.50
2907;DHT22;1463;51.070;16.998;2022-09-09T12:17:56;24.70;95.20
2907;DHT22;1463;51.070;16.998;2022-09-09T12:20:27;24.70;95.70
2907;DHT22;1463;51.070;16.998;2022-09-09T12:23:04;24.60;95.60
2907;DHT22;1463;51.070;16.998;2022-09-09T12:25:39;24.60;95.70
2907;DHT22;1463;51.070;16.998;2022-09-09T12:28:13;24.60;96.00
2907;DHT22;1463;51.070;16.998;2022-09-09T12:30:46;24.70;96.50
2907;DHT22;1463;51.070;16.998;2022-09-09T12:33:18;24.90;96.20
2907;DHT22;1463;51.070;16.998;2022-09-09T12:35:48;25.20;96.10
2907;DHT22;1463;51.070;16.998;2022-09-09T12:38:19;25.30;95.20
2907;DHT22;1463;51.070;16.998;2022-09-09T12:40:53;25.30;95.10
2907;DHT22;1463;51.070;16.998;2022-09-09T12:43:21;25.40;95.00
2907;DHT22;1463;51.070;16.998;2022-09-09T12:45:49;25.40;96.30
2907;DHT22;1463;51.070;16.998;2022-09-09T12:48:24;25.30;96.10
2907;DHT22;1463;51.070;16.998;2022-09-09T12:50:53;25.30;96.20
2907;DHT22;1463;51.070;16.998;2022-09-09T12:53:22;25.10;95.20
2907;DHT22;1463;51.070;16.998;2022-09-09T12:55:52;24.90;93.90
2907;DHT22;1463;51.070;16.998;2022-09-09T12:58:20;24.80;93.60
2907;DHT22;1463;51.070;16.998;2022-09-09T13:00:50;24.80;94.50
2907;DHT22;1463;51.070;16.998;2022-09-09T13:03:18;24.70;94.50
2907;DHT22;1463;51.070;16.998;2022-09-09T13:05:48;24.80;95.00
2907;DHT22;1463;51.070;16.998;2022-09-09T13:08:16;25.00;96.00
2907;DHT22;1463;51.070;16.998;2022-09-09T13:10:46;25.10;96.30
2907;DHT22;1463;51.070;16.998;2022-09-09T13:13:14;25.30;95.30
2907;DHT22;1463;51.070;16.998;2022-09-09T13:15:48;25.30;95.90
2907;DHT22;1463;51.070;16.998;2022-09-09T13:18:15;25.30;94.90
2907;DHT22;1463;51.070;16.998;2022-09-09T13:20:45;25.30;94.70
2907;DHT22;1463;51.070;16.998;2022-09-09T13:23:14;25.40;92.20
2907;DHT22;1463;51.070;16.998;2022-09-09T13:25:51;25.50;92.20
2907;DHT22;1463;51.070;16.998;2022-09-09T13:28:20;25.60;92.40
2907;DHT22;1463;51.070;16.998;2022-09-09T13:30:55;25.60;91.60
2907;DHT22;1463;51.070;16.998;2022-09-09T13:33:29;25.60;91.70
2907;DHT22;1463;51.070;16.998;2022-09-09T13:35:57;25.60;92.80
2907;DHT22;1463;51.070;16.998;2022-09-09T13:38:27;25.50;94.10
2907;DHT22;1463;51.070;16.998;2022-09-09T13:41:01;25.40;93.30
2907;DHT22;1463;51.070;16.998;2022-09-09T13:43:29;25.30;94.40
2907;DHT22;1463;51.070;16.998;2022-09-09T13:45:57;25.10;92.30
2907;DHT22;1463;51.070;16.998;2022-09-09T13:48:24;25.10;92.30
2907;DHT22;1463;51.070;16.998;2022-09-09T13:53:38;24.90;93.10
2907;DHT22;1463;51.070;16.998;2022-09-09T13:56:06;24.90;94.00
2907;DHT22;1463;51.070;16.998;2022-09-09T13:58:34;24.70;92.80
2907;DHT22;1463;51.070;16.998;2022-09-09T14:01:01;24.70;93.30
2907;DHT22;1463;51.070;16.998;2022-09-09T14:03:28;24.60;94.40
2907;DHT22;1463;51.070;16.998;2022-09-09T14:05:55;24.50;95.50
2907;DHT22;1463;51.070;16.998;2022-09-09T14:08:24;24.50;95.30
2907;DHT22;1463;51.070;16.998;2022-09-09T14:10:52;24.50;96.20
2907;DHT22;1463;51.070;16.998;2022-09-09T14:13:22;24.60;96.40
2907;DHT22;1463;51.070;16.998;2022-09-09T14:15:50;24.60;95.40
2907;DHT22;1463;51.070;16.998;2022-09-09T14:18:17;24.60;96.00
2907;DHT22;1463;51.070;16.998;2022-09-09T14:20:44;24.70;92.30
2907;DHT22;1463;51.070;16.998;2022-09-09T14:23:11;24.70;89.30
2907;DHT22;1463;51.070;16.998;2022-09-09T14:25:41;24.70;89.10
2907;DHT22;1463;51.070;16.998;2022-09-09T14:28:10;24.60;89.60
2907;DHT22;1463;51.070;16.998;2022-09-09T14:30:39;24.60;87.20
2907;DHT22;1463;51.070;16.998;2022-09-09T14:33:06;24.60;87.00
2907;DHT22;1463;51.070;16.998;2022-09-09T14:35:33;24.50;86.90
2907;DHT22;1463;51.070;16.998;2022-09-09T14:38:01;24.60;90.00
2907;DHT22;1463;51.070;16.998;2022-09-09T14:40:29;24.60;90.70
2907;DHT22;1463;51.070;16.998;2022-09-09T14:42:56;24.60;90.90
2907;DHT22;1463;51.070;16.998;2022-09-09T14:45:25;24.50;91.00
2907;DHT22;1463;51.070;16.998;2022-09-09T14:47:52;24.50;91.40
2907;DHT22;1463;51.070;16.998;2022-09-09T14:50:20;24.50;91.70
2907;DHT22;1463;51.070;16.998;2022-09-09T14:52:47;24.40;92.10
2907;DHT22;1463;51.070;16.998;2022-09-09T14:55:16;24.40;92.30
2907;DHT22;1463;51.070;16.998;2022-09-09T14:57:43;24.20;92.50
2907;DHT22;1463;51.070;16.998;2022-09-09T15:00:11;24.20;93.30
2907;DHT22;1463;51.070;16.998;2022-09-09T15:02:40;24.20;94.10
2907;DHT22;1463;51.070;16.998;2022-09-09T15:05:08;24.20;94.00
2907;DHT22;1463;51.070;16.998;2022-09-09T15:07:35;24.20;94.60
2907;DHT22;1463;51.070;16.998;2022-09-09T15:10:04;24.20;94.30
2907;DHT22;1463;51.070;16.998;2022-09-09T15:12:32;24.10;94.00
2907;DHT22;1463;51.070;16.998;2022-09-09T15:15:01;24.00;94.20
2907;DHT22;1463;51.070;16.998;2022-09-09T15:17:28;24.00;94.90
2907;DHT22;1463;51.070;16.998;2022-09-09T15:19:56;24.00;94.70
2907;DHT22;1463;51.070;16.998;2022-09-09T15:22:24;24.00;95.20
2907;DHT22;1463;51.070;16.998;2022-09-09T15:24:51;24.00;94.60
2907;DHT22;1463;51.070;16.998;2022-09-09T15:27:18;24.00;95.10
2907;DHT22;1463;51.070;16.998;2022-09-09T15:29:45;23.90;95.00
2907;DHT22;1463;51.070;16.998;2022-09-09T15:32:12;23.90;95.30
2907;DHT22;1463;51.070;16.998;2022-09-09T15:34:39;23.80;95.70
2907;DHT22;1463;51.070;16.998;2022-09-09T15:37:11;23.80;96.20
2907;DHT22;1463;51.070;16.998;2022-09-09T15:39:40;23.80;96.30
2907;DHT22;1463;51.070;16.998;2022-09-09T15:42:08;23.70;96.30
2907;DHT22;1463;51.070;16.998;2022-09-09T15:44:39;23.70;97.00
2907;DHT22;1463;51.070;16.998;2022-09-09T15:47:08;23.60;97.30
2907;DHT22;1463;51.070;16.998;2022-09-09T15:49:37;23.60;97.80
2907;DHT22;1463;51.070;16.998;2022-09-09T15:52:05;23.50;98.60
2907;DHT22;1463;51.070;16.998;2022-09-09T15:54:34;23.50;99.30
2907;DHT22;1463;51.070;16.998;2022-09-09T15:57:02;23.40;99.90
2907;DHT22;1463;51.070;16.998;2022-09-09T15:59:30;23.40;99.90
2907;DHT22;1463;51.070;16.998;2022-09-09T16:01:58;23.40;99.90
2907;DHT22;1463;51.070;16.998;2022-09-09T16:04:26;23.30;99.90
2907;DHT22;1463;51.070;16.998;2022-09-09T16:06:55;23.30;99.90
2907;DHT22;1463;51.070;16.998;2022-09-09T16:09:24;23.30;99.90